sensor_id;sensor_type;location;lat;lon;timestamp;P1;durP1;ratioP1;P2;durP2;ratioP2
34805;SDS011;65084;42.196;25.326;2023-08-30T00:02:22;11.60;;;4.90;;
34805;SDS011;65084;42.196;25.326;2023-08-30T00:04:49;5.32;;;4.82;;
34805;SDS011;65084;42.196;25.326;2023-08-30T00:07:17;10.60;;;5.55;;
34805;SDS011;65084;42.196;25.326;2023-08-30T00:09:44;10.73;;;4.93;;
34805;SDS011;65084;42.196;25.326;2023-08-30T00:12:11;8.20;;;4.72;;
34805;SDS011;65084;42.196;25.326;2023-08-30T00:14:39;7.80;;;4.82;;
34805;SDS011;65084;42.196;25.326;2023-08-30T00:17:06;6.40;;;4.93;;
34805;SDS011;65084;42.196;25.326;2023-08-30T00:19:35;9.43;;;4.82;;
34805;SDS011;65084;42.196;25.326;2023-08-30T00:22:02;14.57;;;5.35;;
34805;SDS011;65084;42.196;25.326;2023-08-30T00:24:32;8.52;;;4.82;;
34805;SDS011;65084;42.196;25.326;2023-08-30T00:27:00;11.82;;;5.13;;
34805;SDS011;65084;42.196;25.326;2023-08-30T00:29:27;8.02;;;4.97;;
34805;SDS011;65084;42.196;25.326;2023-08-30T00:31:54;11.85;;;4.78;;
34805;SDS011;65084;42.196;25.326;2023-08-30T00:34:22;6.60;;;4.50;;
34805;SDS011;65084;42.196;25.326;2023-08-30T00:36:50;6.63;;;5.25;;
34805;SDS011;65084;42.196;25.326;2023-08-30T00:39:17;14.45;;;5.10;;
34805;SDS011;65084;42.196;25.326;2023-08-30T00:41:45;7.57;;;4.93;;
34805;SDS011;65084;42.196;25.326;2023-08-30T00:44:12;7.63;;;5.22;;
34805;SDS011;65084;42.196;25.326;2023-08-30T00:46:40;6.72;;;4.63;;
34805;SDS011;65084;42.196;25.326;2023-08-30T00:49:07;7.05;;;4.90;;
34805;SDS011;65084;42.196;25.326;2023-08-30T00:51:35;5.13;;;4.63;;
34805;SDS011;65084;42.196;25.326;2023-08-30T00:54:04;9.10;;;5.15;;
34805;SDS011;65084;42.196;25.326;2023-08-30T00:56:32;11.70;;;5.30;;
34805;SDS011;65084;42.196;25.326;2023-08-30T00:58:59;9.77;;;4.70;;
34805;SDS011;65084;42.196;25.326;2023-08-30T01:01:26;20.50;;;5.43;;
34805;SDS011;65084;42.196;25.326;2023-08-30T01:03:54;9.77;;;5.03;;
34805;SDS011;65084;42.196;25.326;2023-08-30T01:06:21;5.05;;;4.53;;
34805;SDS011;65084;42.196;25.326;2023-08-30T01:08:48;14.98;;;5.47;;
34805;SDS011;65084;42.196;25.326;2023-08-30T01:11:18;15.80;;;4.97;;
34805;SDS011;65084;42.196;25.326;2023-08-30T01:13:50;5.90;;;4.70;;
34805;SDS011;65084;42.196;25.326;2023-08-30T01:16:20;5.78;;;4.72;;
34805;SDS011;65084;42.196;25.326;2023-08-30T01:18:49;13.70;;;5.47;;
34805;SDS011;65084;42.196;25.326;2023-08-30T01:21:21;9.45;;;4.80;;
34805;SDS011;65084;42.196;25.326;2023-08-30T01:23:52;5.97;;;4.85;;
34805;SDS011;65084;42.196;25.326;2023-08-30T01:26:25;12.77;;;4.95;;
34805;SDS011;65084;42.196;25.326;2023-08-30T01:28:55;6.50;;;4.90;;
34805;SDS011;65084;42.196;25.326;2023-08-30T01:31:23;8.45;;;5.13;;
34805;SDS011;65084;42.196;25.326;2023-08-30T01:33:51;9.80;;;5.20;;
34805;SDS011;65084;42.196;25.326;2023-08-30T01:36:18;9.65;;;5.45;;
34805;SDS011;65084;42.196;25.326;2023-08-30T01:38:46;5.50;;;5.00;;
34805;SDS011;65084;42.196;25.326;2023-08-30T01:41:13;6.28;;;4.72;;
34805;SDS011;65084;42.196;25.326;2023-08-30T01:43:41;6.57;;;4.80;;
34805;SDS011;65084;42.196;25.326;2023-08-30T01:46:10;8.88;;;5.07;;
34805;SDS011;65084;42.196;25.326;2023-08-30T01:48:37;13.90;;;5.97;;
34805;SDS011;65084;42.196;25.326;2023-08-30T01:51:05;8.30;;;5.20;;
34805;SDS011;65084;42.196;25.326;2023-08-30T01:53:34;7.60;;;6.05;;
34805;SDS011;65084;42.196;25.326;2023-08-30T01:56:03;5.85;;;5.15;;
34805;SDS011;65084;42.196;25.326;2023-08-30T01:58:30;9.65;;;4.80;;
34805;SDS011;65084;42.196;25.326;2023-08-30T02:00:56;8.60;;;5.05;;
34805;SDS011;65084;42.196;25.326;2023-08-30T02:03:25;5.93;;;5.10;;
34805;SDS011;65084;42.196;25.326;2023-08-30T02:05:56;7.80;;;4.80;;
34805;SDS011;65084;42.196;25.326;2023-08-30T02:08:29;16.90;;;5.03;;
34805;SDS011;65084;42.196;25.326;2023-08-30T02:11:00;6.35;;;5.13;;
34805;SDS011;65084;42.196;25.326;2023-08-30T02:13:28;10.63;;;5.20;;
34805;SDS011;65084;42.196;25.326;2023-08-30T02:15:59;9.73;;;5.53;;
34805;SDS011;65084;42.196;25.326;2023-08-30T02:18:28;9.57;;;5.30;;
34805;SDS011;65084;42.196;25.326;2023-08-30T02:20:56;9.38;;;5.03;;
34805;SDS011;65084;42.196;25.326;2023-08-30T02:23:23;10.30;;;4.85;;
34805;SDS011;65084;42.196;25.326;2023-08-30T02:25:51;12.07;;;5.70;;
34805;SDS011;65084;42.196;25.326;2023-08-30T02:28:18;8.75;;;5.13;;
34805;SDS011;65084;42.196;25.326;2023-08-30T02:30:45;6.25;;;5.32;;
34805;SDS011;65084;42.196;25.326;2023-08-30T02:33:12;9.98;;;5.38;;
34805;SDS011;65084;42.196;25.326;2023-08-30T02:35:41;11.13;;;5.53;;
34805;SDS011;65084;42.196;25.326;2023-08-30T02:38:08;8.52;;;4.90;;
34805;SDS011;65084;42.196;25.326;2023-08-30T02:40:36;9.40;;;5.20;;
34805;SDS011;65084;42.196;25.326;2023-08-30T02:43:03;8.65;;;5.32;;
34805;SDS011;65084;42.196;25.326;2023-08-30T02:45:30;9.65;;;4.93;;
34805;SDS011;65084;42.196;25.326;2023-08-30T02:47:57;10.07;;;6.07;;
34805;SDS011;65084;42.196;25.326;2023-08-30T02:50:25;8.93;;;4.88;;
34805;SDS011;65084;42.196;25.326;2023-08-30T02:52:53;7.70;;;5.38;;
34805;SDS011;65084;42.196;25.326;2023-08-30T02:55:21;8.52;;;4.53;;
34805;SDS011;65084;42.196;25.326;2023-08-30T02:57:48;6.55;;;5.07;;
34805;SDS011;65084;42.196;25.326;2023-08-30T03:00:15;8.30;;;5.55;;
34805;SDS011;65084;42.196;25.326;2023-08-30T03:02:43;9.52;;;5.35;;
34805;SDS011;65084;42.196;25.326;2023-08-30T03:05:10;10.10;;;5.57;;
34805;SDS011;65084;42.196;25.326;2023-08-30T03:07:38;7.85;;;5.18;;
34805;SDS011;65084;42.196;25.326;2023-08-30T03:10:07;12.73;;;5.35;;
34805;SDS011;65084;42.196;25.326;2023-08-30T03:12:34;7.53;;;5.35;;
34805;SDS011;65084;42.196;25.326;2023-08-30T03:15:01;6.97;;;5.25;;
34805;SDS011;65084;42.196;25.326;2023-08-30T03:17:29;6.68;;;5.22;;
34805;SDS011;65084;42.196;25.326;2023-08-30T03:19:56;11.80;;;5.65;;
34805;SDS011;65084;42.196;25.326;2023-08-30T03:22:23;7.53;;;5.32;;
34805;SDS011;65084;42.196;25.326;2023-08-30T03:24:51;9.20;;;5.88;;
34805;SDS011;65084;42.196;25.326;2023-08-30T03:27:19;10.05;;;5.90;;
34805;SDS011;65084;42.196;25.326;2023-08-30T03:29:47;7.35;;;5.30;;
34805;SDS011;65084;42.196;25.326;2023-08-30T03:32:15;5.80;;;5.13;;
34805;SDS011;65084;42.196;25.326;2023-08-30T03:34:43;9.55;;;5.75;;
34805;SDS011;65084;42.196;25.326;2023-08-30T03:37:11;5.70;;;5.10;;
34805;SDS011;65084;42.196;25.326;2023-08-30T03:39:38;9.85;;;5.68;;
34805;SDS011;65084;42.196;25.326;2023-08-30T03:42:05;10.63;;;5.03;;
34805;SDS011;65084;42.196;25.326;2023-08-30T03:44:34;53.90;;;7.20;;
34805;SDS011;65084;42.196;25.326;2023-08-30T03:47:01;39.35;;;6.55;;
34805;SDS011;65084;42.196;25.326;2023-08-30T03:49:28;45.20;;;7.22;;
34805;SDS011;65084;42.196;25.326;2023-08-30T03:51:56;23.67;;;5.85;;
34805;SDS011;65084;42.196;25.326;2023-08-30T03:54:23;18.80;;;5.50;;
34805;SDS011;65084;42.196;25.326;2023-08-30T03:56:50;19.20;;;5.75;;
34805;SDS011;65084;42.196;25.326;2023-08-30T03:59:18;9.02;;;5.63;;
34805;SDS011;65084;42.196;25.326;2023-08-30T04:01:48;24.58;;;6.38;;
34805;SDS011;65084;42.196;25.326;2023-08-30T04:04:15;11.27;;;5.97;;
34805;SDS011;65084;42.196;25.326;2023-08-30T04:06:42;7.40;;;5.10;;
34805;SDS011;65084;42.196;25.326;2023-08-30T04:09:10;9.05;;;5.43;;
34805;SDS011;65084;42.196;25.326;2023-08-30T04:11:37;11.75;;;5.63;;
34805;SDS011;65084;42.196;25.326;2023-08-30T04:14:04;8.90;;;5.50;;
34805;SDS011;65084;42.196;25.326;2023-08-30T04:16:31;6.90;;;4.88;;
34805;SDS011;65084;42.196;25.326;2023-08-30T04:19:00;8.43;;;5.30;;
34805;SDS011;65084;42.196;25.326;2023-08-30T04:21:27;12.30;;;5.78;;
34805;SDS011;65084;42.196;25.326;2023-08-30T04:23:55;13.18;;;5.63;;
34805;SDS011;65084;42.196;25.326;2023-08-30T04:26:22;9.98;;;5.45;;
34805;SDS011;65084;42.196;25.326;2023-08-30T04:28:49;27.38;;;6.03;;
34805;SDS011;65084;42.196;25.326;2023-08-30T04:31:16;10.88;;;5.30;;
34805;SDS011;65084;42.196;25.326;2023-08-30T04:33:44;9.45;;;5.88;;
34805;SDS011;65084;42.196;25.326;2023-08-30T04:36:12;12.48;;;5.85;;
34805;SDS011;65084;42.196;25.326;2023-08-30T04:38:39;16.30;;;5.55;;
34805;SDS011;65084;42.196;25.326;2023-08-30T04:41:07;13.85;;;4.97;;
34805;SDS011;65084;42.196;25.326;2023-08-30T04:43:34;9.73;;;6.13;;
34805;SDS011;65084;42.196;25.326;2023-08-30T04:46:01;8.60;;;5.55;;
34805;SDS011;65084;42.196;25.326;2023-08-30T04:48:29;26.75;;;6.07;;
34805;SDS011;65084;42.196;25.326;2023-08-30T04:51:00;18.60;;;6.10;;
34805;SDS011;65084;42.196;25.326;2023-08-30T04:53:29;13.20;;;5.80;;
34805;SDS011;65084;42.196;25.326;2023-08-30T04:55:56;21.50;;;6.80;;
34805;SDS011;65084;42.196;25.326;2023-08-30T04:58:24;13.60;;;6.18;;
34805;SDS011;65084;42.196;25.326;2023-08-30T05:00:51;14.15;;;6.25;;
34805;SDS011;65084;42.196;25.326;2023-08-30T05:03:18;10.02;;;6.10;;
34805;SDS011;65084;42.196;25.326;2023-08-30T05:05:46;14.05;;;6.15;;
34805;SDS011;65084;42.196;25.326;2023-08-30T05:08:13;9.30;;;6.57;;
34805;SDS011;65084;42.196;25.326;2023-08-30T05:10:41;11.82;;;6.05;;
34805;SDS011;65084;42.196;25.326;2023-08-30T05:13:09;17.08;;;5.88;;
34805;SDS011;65084;42.196;25.326;2023-08-30T05:15:36;16.38;;;5.85;;
34805;SDS011;65084;42.196;25.326;2023-08-30T05:18:04;63.03;;;9.07;;
34805;SDS011;65084;42.196;25.326;2023-08-30T05:20:31;8.18;;;5.80;;
34805;SDS011;65084;42.196;25.326;2023-08-30T05:22:58;17.13;;;6.53;;
34805;SDS011;65084;42.196;25.326;2023-08-30T05:25:26;18.60;;;6.72;;
34805;SDS011;65084;42.196;25.326;2023-08-30T05:27:54;9.70;;;5.38;;
34805;SDS011;65084;42.196;25.326;2023-08-30T05:30:22;14.52;;;6.43;;
34805;SDS011;65084;42.196;25.326;2023-08-30T05:32:49;14.70;;;5.80;;
34805;SDS011;65084;42.196;25.326;2023-08-30T05:35:16;10.23;;;5.93;;
34805;SDS011;65084;42.196;25.326;2023-08-30T05:37:43;29.35;;;6.80;;
34805;SDS011;65084;42.196;25.326;2023-08-30T05:40:11;15.45;;;6.40;;
34805;SDS011;65084;42.196;25.326;2023-08-30T05:42:40;16.25;;;6.50;;
34805;SDS011;65084;42.196;25.326;2023-08-30T05:45:09;12.52;;;6.50;;
34805;SDS011;65084;42.196;25.326;2023-08-30T05:47:37;51.40;;;7.40;;
34805;SDS011;65084;42.196;25.326;2023-08-30T05:50:04;176.15;;;14.57;;
34805;SDS011;65084;42.196;25.326;2023-08-30T05:52:32;21.38;;;6.78;;
34805;SDS011;65084;42.196;25.326;2023-08-30T05:54:59;41.85;;;8.10;;
34805;SDS011;65084;42.196;25.326;2023-08-30T05:57:26;8.05;;;7.18;;
34805;SDS011;65084;42.196;25.326;2023-08-30T05:59:58;9.60;;;6.68;;
34805;SDS011;65084;42.196;25.326;2023-08-30T06:02:27;9.60;;;6.35;;
34805;SDS011;65084;42.196;25.326;2023-08-30T06:04:54;10.48;;;6.57;;
34805;SDS011;65084;42.196;25.326;2023-08-30T06:07:21;9.93;;;6.60;;
34805;SDS011;65084;42.196;25.326;2023-08-30T06:09:48;11.60;;;6.93;;
34805;SDS011;65084;42.196;25.326;2023-08-30T06:12:16;9.18;;;6.70;;
34805;SDS011;65084;42.196;25.326;2023-08-30T06:14:43;14.48;;;7.07;;
34805;SDS011;65084;42.196;25.326;2023-08-30T06:17:15;11.25;;;6.97;;
34805;SDS011;65084;42.196;25.326;2023-08-30T06:19:44;10.80;;;6.75;;
34805;SDS011;65084;42.196;25.326;2023-08-30T06:22:11;8.82;;;6.65;;
34805;SDS011;65084;42.196;25.326;2023-08-30T06:24:39;9.60;;;6.78;;
34805;SDS011;65084;42.196;25.326;2023-08-30T06:27:06;47.42;;;9.43;;
34805;SDS011;65084;42.196;25.326;2023-08-30T06:29:33;13.55;;;6.95;;
34805;SDS011;65084;42.196;25.326;2023-08-30T06:32:00;11.82;;;6.43;;
34805;SDS011;65084;42.196;25.326;2023-08-30T06:34:28;23.05;;;7.68;;
34805;SDS011;65084;42.196;25.326;2023-08-30T06:36:57;10.70;;;6.05;;
34805;SDS011;65084;42.196;25.326;2023-08-30T06:39:24;11.00;;;6.78;;
34805;SDS011;65084;42.196;25.326;2023-08-30T06:41:52;26.52;;;7.40;;
34805;SDS011;65084;42.196;25.326;2023-08-30T06:44:19;8.13;;;6.25;;
34805;SDS011;65084;42.196;25.326;2023-08-30T06:46:47;7.95;;;6.82;;
34805;SDS011;65084;42.196;25.326;2023-08-30T06:49:14;6.80;;;6.18;;
34805;SDS011;65084;42.196;25.326;2023-08-30T06:51:41;14.57;;;6.93;;
34805;SDS011;65084;42.196;25.326;2023-08-30T06:54:10;12.60;;;6.72;;
34805;SDS011;65084;42.196;25.326;2023-08-30T06:56:37;12.00;;;7.25;;
34805;SDS011;65084;42.196;25.326;2023-08-30T06:59:05;11.40;;;6.50;;
34805;SDS011;65084;42.196;25.326;2023-08-30T07:01:32;11.23;;;7.80;;
34805;SDS011;65084;42.196;25.326;2023-08-30T07:03:59;16.83;;;7.00;;
34805;SDS011;65084;42.196;25.326;2023-08-30T07:06:26;17.98;;;6.60;;
34805;SDS011;65084;42.196;25.326;2023-08-30T07:08:56;7.57;;;6.47;;
34805;SDS011;65084;42.196;25.326;2023-08-30T07:11:24;13.60;;;7.22;;
34805;SDS011;65084;42.196;25.326;2023-08-30T07:13:51;10.07;;;6.97;;
34805;SDS011;65084;42.196;25.326;2023-08-30T07:16:19;9.70;;;7.30;;
34805;SDS011;65084;42.196;25.326;2023-08-30T07:18:46;15.65;;;7.38;;
34805;SDS011;65084;42.196;25.326;2023-08-30T07:21:13;11.93;;;7.10;;
34805;SDS011;65084;42.196;25.326;2023-08-30T07:23:40;9.70;;;6.78;;
34805;SDS011;65084;42.196;25.326;2023-08-30T07:26:08;17.15;;;7.47;;
34805;SDS011;65084;42.196;25.326;2023-08-30T07:28:36;6.80;;;6.18;;
34805;SDS011;65084;42.196;25.326;2023-08-30T07:31:05;7.97;;;6.88;;
34805;SDS011;65084;42.196;25.326;2023-08-30T07:33:32;9.52;;;6.97;;
34805;SDS011;65084;42.196;25.326;2023-08-30T07:35:59;9.48;;;6.10;;
34805;SDS011;65084;42.196;25.326;2023-08-30T07:38:28;12.05;;;7.35;;
34805;SDS011;65084;42.196;25.326;2023-08-30T07:40:55;15.25;;;7.05;;
34805;SDS011;65084;42.196;25.326;2023-08-30T07:43:22;13.07;;;7.53;;
34805;SDS011;65084;42.196;25.326;2023-08-30T07:45:51;10.60;;;6.80;;
34805;SDS011;65084;42.196;25.326;2023-08-30T07:48:18;17.38;;;7.60;;
34805;SDS011;65084;42.196;25.326;2023-08-30T07:50:45;11.07;;;7.65;;
34805;SDS011;65084;42.196;25.326;2023-08-30T07:53:13;15.93;;;7.72;;
34805;SDS011;65084;42.196;25.326;2023-08-30T07:55:40;8.60;;;7.45;;
34805;SDS011;65084;42.196;25.326;2023-08-30T07:58:07;18.20;;;7.47;;
34805;SDS011;65084;42.196;25.326;2023-08-30T08:00:35;24.75;;;7.63;;
34805;SDS011;65084;42.196;25.326;2023-08-30T08:03:05;15.75;;;7.13;;
34805;SDS011;65084;42.196;25.326;2023-08-30T08:05:32;12.23;;;7.40;;
34805;SDS011;65084;42.196;25.326;2023-08-30T08:08:00;11.57;;;7.88;;
34805;SDS011;65084;42.196;25.326;2023-08-30T08:10:27;12.90;;;7.78;;
34805;SDS011;65084;42.196;25.326;2023-08-30T08:12:55;11.75;;;7.70;;
34805;SDS011;65084;42.196;25.326;2023-08-30T08:15:22;30.30;;;8.05;;
34805;SDS011;65084;42.196;25.326;2023-08-30T08:17:49;22.90;;;7.95;;
34805;SDS011;65084;42.196;25.326;2023-08-30T08:20:18;13.73;;;7.72;;
34805;SDS011;65084;42.196;25.326;2023-08-30T08:22:45;13.30;;;7.80;;
34805;SDS011;65084;42.196;25.326;2023-08-30T08:25:13;18.88;;;7.70;;
34805;SDS011;65084;42.196;25.326;2023-08-30T08:27:41;19.85;;;8.70;;
34805;SDS011;65084;42.196;25.326;2023-08-30T08:30:08;35.72;;;7.93;;
34805;SDS011;65084;42.196;25.326;2023-08-30T08:32:36;15.40;;;7.70;;
34805;SDS011;65084;42.196;25.326;2023-08-30T08:35:03;14.20;;;8.82;;
34805;SDS011;65084;42.196;25.326;2023-08-30T08:37:32;10.88;;;8.25;;
34805;SDS011;65084;42.196;25.326;2023-08-30T08:39:59;12.50;;;8.65;;
34805;SDS011;65084;42.196;25.326;2023-08-30T08:42:33;21.77;;;9.13;;
34805;SDS011;65084;42.196;25.326;2023-08-30T08:45:01;13.55;;;8.73;;
34805;SDS011;65084;42.196;25.326;2023-08-30T08:47:29;18.08;;;8.90;;
34805;SDS011;65084;42.196;25.326;2023-08-30T08:49:57;14.80;;;8.20;;
34805;SDS011;65084;42.196;25.326;2023-08-30T08:52:24;25.20;;;7.97;;
34805;SDS011;65084;42.196;25.326;2023-08-30T08:54:54;14.98;;;8.52;;
34805;SDS011;65084;42.196;25.326;2023-08-30T08:57:21;13.00;;;8.27;;
34805;SDS011;65084;42.196;25.326;2023-08-30T08:59:49;14.32;;;8.63;;
34805;SDS011;65084;42.196;25.326;2023-08-30T09:02:16;16.15;;;8.70;;
34805;SDS011;65084;42.196;25.326;2023-08-30T09:04:43;13.52;;;8.57;;
34805;SDS011;65084;42.196;25.326;2023-08-30T09:07:11;12.43;;;8.80;;
34805;SDS011;65084;42.196;25.326;2023-08-30T09:09:38;12.20;;;8.60;;
34805;SDS011;65084;42.196;25.326;2023-08-30T09:12:07;17.67;;;8.30;;
34805;SDS011;65084;42.196;25.326;2023-08-30T09:14:35;13.15;;;9.05;;
34805;SDS011;65084;42.196;25.326;2023-08-30T09:17:02;16.90;;;8.77;;
34805;SDS011;65084;42.196;25.326;2023-08-30T09:19:30;14.75;;;8.45;;
34805;SDS011;65084;42.196;25.326;2023-08-30T09:21:57;14.30;;;8.93;;
34805;SDS011;65084;42.196;25.326;2023-08-30T09:24:25;11.68;;;8.65;;
34805;SDS011;65084;42.196;25.326;2023-08-30T09:26:53;13.55;;;8.52;;
34805;SDS011;65084;42.196;25.326;2023-08-30T09:29:22;15.15;;;8.48;;
34805;SDS011;65084;42.196;25.326;2023-08-30T09:31:50;13.80;;;8.38;;
34805;SDS011;65084;42.196;25.326;2023-08-30T09:34:21;15.85;;;8.05;;
34805;SDS011;65084;42.196;25.326;2023-08-30T09:36:49;13.82;;;8.85;;
34805;SDS011;65084;42.196;25.326;2023-08-30T09:39:16;14.98;;;8.18;;
34805;SDS011;65084;42.196;25.326;2023-08-30T09:41:44;19.67;;;9.63;;
34805;SDS011;65084;42.196;25.326;2023-08-30T09:44:12;14.30;;;8.52;;
34805;SDS011;65084;42.196;25.326;2023-08-30T09:46:41;16.13;;;8.73;;
34805;SDS011;65084;42.196;25.326;2023-08-30T09:49:09;13.95;;;8.75;;
34805;SDS011;65084;42.196;25.326;2023-08-30T09:51:38;9.48;;;7.80;;
34805;SDS011;65084;42.196;25.326;2023-08-30T09:54:06;13.18;;;8.40;;
34805;SDS011;65084;42.196;25.326;2023-08-30T09:56:35;20.08;;;8.40;;
34805;SDS011;65084;42.196;25.326;2023-08-30T09:59:03;21.33;;;8.38;;
34805;SDS011;65084;42.196;25.326;2023-08-30T10:01:32;21.25;;;8.57;;
34805;SDS011;65084;42.196;25.326;2023-08-30T10:04:00;17.45;;;7.90;;
34805;SDS011;65084;42.196;25.326;2023-08-30T10:06:29;11.05;;;7.55;;
34805;SDS011;65084;42.196;25.326;2023-08-30T10:08:57;10.95;;;7.85;;
34805;SDS011;65084;42.196;25.326;2023-08-30T10:11:26;10.70;;;7.53;;
34805;SDS011;65084;42.196;25.326;2023-08-30T10:13:54;17.85;;;7.28;;
34805;SDS011;65084;42.196;25.326;2023-08-30T10:16:22;12.63;;;7.00;;
34805;SDS011;65084;42.196;25.326;2023-08-30T10:18:50;8.95;;;6.78;;
34805;SDS011;65084;42.196;25.326;2023-08-30T10:21:20;13.63;;;7.63;;
34805;SDS011;65084;42.196;25.326;2023-08-30T10:23:48;10.85;;;7.00;;
34805;SDS011;65084;42.196;25.326;2023-08-30T10:26:17;23.13;;;6.75;;
34805;SDS011;65084;42.196;25.326;2023-08-30T10:28:45;8.65;;;7.03;;
34805;SDS011;65084;42.196;25.326;2023-08-30T10:31:13;8.18;;;6.60;;
34805;SDS011;65084;42.196;25.326;2023-08-30T10:33:46;12.73;;;6.47;;
34805;SDS011;65084;42.196;25.326;2023-08-30T10:36:21;10.35;;;6.70;;
34805;SDS011;65084;42.196;25.326;2023-08-30T10:38:49;9.68;;;6.95;;
34805;SDS011;65084;42.196;25.326;2023-08-30T10:41:20;8.93;;;6.88;;
34805;SDS011;65084;42.196;25.326;2023-08-30T10:43:51;12.68;;;7.55;;
34805;SDS011;65084;42.196;25.326;2023-08-30T10:46:28;12.05;;;7.88;;
34805;SDS011;65084;42.196;25.326;2023-08-30T10:48:56;24.17;;;7.05;;
34805;SDS011;65084;42.196;25.326;2023-08-30T10:51:36;16.35;;;8.30;;
34805;SDS011;65084;42.196;25.326;2023-08-30T10:54:13;15.07;;;7.32;;
34805;SDS011;65084;42.196;25.326;2023-08-30T10:56:45;12.95;;;7.03;;
34805;SDS011;65084;42.196;25.326;2023-08-30T10:59:16;12.05;;;6.75;;
34805;SDS011;65084;42.196;25.326;2023-08-30T11:01:44;16.00;;;7.07;;
34805;SDS011;65084;42.196;25.326;2023-08-30T11:04:12;9.95;;;7.28;;
34805;SDS011;65084;42.196;25.326;2023-08-30T11:06:42;9.05;;;7.65;;
34805;SDS011;65084;42.196;25.326;2023-08-30T11:09:12;10.85;;;7.30;;
34805;SDS011;65084;42.196;25.326;2023-08-30T11:11:43;11.00;;;6.95;;
34805;SDS011;65084;42.196;25.326;2023-08-30T11:14:10;16.73;;;6.80;;
34805;SDS011;65084;42.196;25.326;2023-08-30T11:16:38;14.32;;;7.10;;
34805;SDS011;65084;42.196;25.326;2023-08-30T11:19:05;9.80;;;6.72;;
34805;SDS011;65084;42.196;25.326;2023-08-30T11:21:33;11.98;;;6.70;;
34805;SDS011;65084;42.196;25.326;2023-08-30T11:24:02;7.15;;;6.10;;
34805;SDS011;65084;42.196;25.326;2023-08-30T11:26:30;9.32;;;6.28;;
34805;SDS011;65084;42.196;25.326;2023-08-30T11:28:57;11.70;;;6.05;;
34805;SDS011;65084;42.196;25.326;2023-08-30T11:31:25;8.18;;;6.32;;
34805;SDS011;65084;42.196;25.326;2023-08-30T11:33:52;12.70;;;6.43;;
34805;SDS011;65084;42.196;25.326;2023-08-30T11:36:21;8.00;;;6.28;;
34805;SDS011;65084;42.196;25.326;2023-08-30T11:38:48;12.57;;;6.45;;
34805;SDS011;65084;42.196;25.326;2023-08-30T11:41:17;7.90;;;6.00;;
34805;SDS011;65084;42.196;25.326;2023-08-30T11:43:46;9.85;;;6.88;;
34805;SDS011;65084;42.196;25.326;2023-08-30T11:46:14;11.50;;;6.82;;
34805;SDS011;65084;42.196;25.326;2023-08-30T11:48:41;11.65;;;7.68;;
34805;SDS011;65084;42.196;25.326;2023-08-30T11:51:09;8.60;;;6.32;;
34805;SDS011;65084;42.196;25.326;2023-08-30T11:53:37;17.13;;;7.13;;
34805;SDS011;65084;42.196;25.326;2023-08-30T11:56:05;10.20;;;6.95;;
34805;SDS011;65084;42.196;25.326;2023-08-30T11:58:34;8.18;;;6.50;;
34805;SDS011;65084;42.196;25.326;2023-08-30T12:01:02;14.57;;;6.47;;
34805;SDS011;65084;42.196;25.326;2023-08-30T12:03:30;15.55;;;6.65;;
34805;SDS011;65084;42.196;25.326;2023-08-30T12:05:58;8.18;;;7.03;;
34805;SDS011;65084;42.196;25.326;2023-08-30T12:08:27;11.70;;;6.28;;
34805;SDS011;65084;42.196;25.326;2023-08-30T12:10:55;11.07;;;6.95;;
34805;SDS011;65084;42.196;25.326;2023-08-30T12:13:22;13.60;;;6.32;;
34805;SDS011;65084;42.196;25.326;2023-08-30T12:15:51;11.13;;;6.68;;
34805;SDS011;65084;42.196;25.326;2023-08-30T12:18:20;9.65;;;6.28;;
34805;SDS011;65084;42.196;25.326;2023-08-30T12:20:52;13.20;;;6.82;;
34805;SDS011;65084;42.196;25.326;2023-08-30T12:23:20;12.13;;;6.65;;
34805;SDS011;65084;42.196;25.326;2023-08-30T12:25:57;13.10;;;6.68;;
34805;SDS011;65084;42.196;25.326;2023-08-30T12:28:24;7.55;;;6.65;;
34805;SDS011;65084;42.196;25.326;2023-08-30T12:30:53;12.13;;;6.90;;
34805;SDS011;65084;42.196;25.326;2023-08-30T12:33:20;16.17;;;7.40;;
34805;SDS011;65084;42.196;25.326;2023-08-30T12:35:48;12.23;;;7.88;;
34805;SDS011;65084;42.196;25.326;2023-08-30T12:38:15;14.80;;;7.47;;
34805;SDS011;65084;42.196;25.326;2023-08-30T12:40:44;19.08;;;7.28;;
34805;SDS011;65084;42.196;25.326;2023-08-30T12:46:14;8.68;;;7.65;;
34805;SDS011;65084;42.196;25.326;2023-08-30T12:48:42;12.07;;;7.43;;
34805;SDS011;65084;42.196;25.326;2023-08-30T12:51:09;13.02;;;7.25;;
34805;SDS011;65084;42.196;25.326;2023-08-30T12:53:38;21.77;;;7.90;;
34805;SDS011;65084;42.196;25.326;2023-08-30T12:56:06;12.75;;;7.07;;
34805;SDS011;65084;42.196;25.326;2023-08-30T12:58:33;15.23;;;7.50;;
34805;SDS011;65084;42.196;25.326;2023-08-30T13:01:00;12.45;;;7.32;;
34805;SDS011;65084;42.196;25.326;2023-08-30T13:03:29;11.10;;;7.55;;
34805;SDS011;65084;42.196;25.326;2023-08-30T13:05:56;13.45;;;7.65;;
34805;SDS011;65084;42.196;25.326;2023-08-30T13:08:24;9.70;;;7.30;;
34805;SDS011;65084;42.196;25.326;2023-08-30T13:10:52;12.95;;;6.38;;
34805;SDS011;65084;42.196;25.326;2023-08-30T13:13:19;19.17;;;7.95;;
34805;SDS011;65084;42.196;25.326;2023-08-30T13:15:46;14.70;;;7.50;;
34805;SDS011;65084;42.196;25.326;2023-08-30T13:18:14;8.35;;;6.82;;
34805;SDS011;65084;42.196;25.326;2023-08-30T13:20:43;11.15;;;6.72;;
34805;SDS011;65084;42.196;25.326;2023-08-30T13:23:10;10.93;;;7.25;;
34805;SDS011;65084;42.196;25.326;2023-08-30T13:25:38;14.93;;;7.60;;
34805;SDS011;65084;42.196;25.326;2023-08-30T13:28:06;18.77;;;7.13;;
34805;SDS011;65084;42.196;25.326;2023-08-30T13:30:33;13.27;;;7.05;;
34805;SDS011;65084;42.196;25.326;2023-08-30T13:33:01;15.35;;;7.57;;
34805;SDS011;65084;42.196;25.326;2023-08-30T13:35:28;13.25;;;7.38;;
34805;SDS011;65084;42.196;25.326;2023-08-30T13:37:56;11.18;;;7.05;;
34805;SDS011;65084;42.196;25.326;2023-08-30T13:40:24;15.52;;;7.65;;
34805;SDS011;65084;42.196;25.326;2023-08-30T13:42:51;9.90;;;7.82;;
34805;SDS011;65084;42.196;25.326;2023-08-30T13:45:19;12.85;;;7.57;;
34805;SDS011;65084;42.196;25.326;2023-08-30T13:47:46;13.38;;;8.25;;
34805;SDS011;65084;42.196;25.326;2023-08-30T13:50:16;11.63;;;7.70;;
34805;SDS011;65084;42.196;25.326;2023-08-30T13:52:44;15.82;;;8.20;;
34805;SDS011;65084;42.196;25.326;2023-08-30T13:55:12;13.60;;;7.75;;
34805;SDS011;65084;42.196;25.326;2023-08-30T13:57:40;16.23;;;7.47;;
34805;SDS011;65084;42.196;25.326;2023-08-30T14:00:07;10.65;;;7.30;;
34805;SDS011;65084;42.196;25.326;2023-08-30T14:02:35;20.42;;;7.78;;
34805;SDS011;65084;42.196;25.326;2023-08-30T14:05:02;18.70;;;7.65;;
34805;SDS011;65084;42.196;25.326;2023-08-30T14:07:29;18.55;;;8.38;;
34805;SDS011;65084;42.196;25.326;2023-08-30T14:09:57;13.85;;;8.23;;
34805;SDS011;65084;42.196;25.326;2023-08-30T14:12:26;29.40;;;8.43;;
34805;SDS011;65084;42.196;25.326;2023-08-30T14:14:53;20.55;;;9.20;;
34805;SDS011;65084;42.196;25.326;2023-08-30T14:17:20;19.45;;;9.30;;
34805;SDS011;65084;42.196;25.326;2023-08-30T14:19:48;20.95;;;8.73;;
34805;SDS011;65084;42.196;25.326;2023-08-30T14:22:15;20.77;;;8.10;;
34805;SDS011;65084;42.196;25.326;2023-08-30T14:24:42;17.52;;;8.35;;
34805;SDS011;65084;42.196;25.326;2023-08-30T14:27:10;12.68;;;7.80;;
34805;SDS011;65084;42.196;25.326;2023-08-30T14:29:39;23.40;;;7.88;;
34805;SDS011;65084;42.196;25.326;2023-08-30T14:32:06;19.38;;;8.05;;
34805;SDS011;65084;42.196;25.326;2023-08-30T14:34:33;20.35;;;8.48;;